Edinburg, Virginia
Current Conditions -  °F | °C
As of 8:15 AM on Sunday 23 Nov 2014 (Local Time) from KLUA Reporting Station
Clear Clear  
Wind Chill: 37°   Ceiling: Unl
Heat Index: 37°   Visibility: 10mi
Dew Point: 30°   Wind: 0mph
Humidity: 75%   Direction: NA
Pressure: 30.19"   Gusts: NA
Location:  38.82°N, 78.57°W
Report Text: KLUA 231315Z AUTO 00000KT 10SM CLR 03/M01 A3019 RMK AO2
Loading
Personal Weather Stations






























Interactive Weather Map New forecast layout! Learn more

10-Day Weather Forecast

Advertisements
Track Severe Weather on mobile